sensor_id;sensor_type;location;lat;lon;timestamp;temperature;humidity
75010;DHT22;63564;46.840;18.336;2022-11-18T00:01:23;8.31;99.86
75010;DHT22;63564;46.840;18.336;2022-11-18T00:04:23;8.35;99.99
75010;DHT22;63564;46.840;18.336;2022-11-18T00:07:25;8.52;99.69
75010;DHT22;63564;46.840;18.336;2022-11-18T00:10:25;8.62;98.98
75010;DHT22;63564;46.840;18.336;2022-11-18T00:13:26;8.59;99.26
75010;DHT22;63564;46.840;18.336;2022-11-18T00:16:47;8.42;99.73
75010;DHT22;63564;46.840;18.336;2022-11-18T00:19:47;8.59;99.56
75010;DHT22;63564;46.840;18.336;2022-11-18T00:22:48;8.61;99.23
75010;DHT22;63564;46.840;18.336;2022-11-18T00:25:48;8.46;99.54
75010;DHT22;63564;46.840;18.336;2022-11-18T00:28:48;8.35;99.84
75010;DHT22;63564;46.840;18.336;2022-11-18T00:31:49;8.23;99.99
75010;DHT22;63564;46.840;18.336;2022-11-18T00:34:49;8.18;99.99
75010;DHT22;63564;46.840;18.336;2022-11-18T00:37:49;8.14;99.99
75010;DHT22;63564;46.840;18.336;2022-11-18T00:41:04;8.11;99.99
75010;DHT22;63564;46.840;18.336;2022-11-18T00:44:05;8.21;99.99
75010;DHT22;63564;46.840;18.336;2022-11-18T00:47:05;8.41;99.99
75010;DHT22;63564;46.840;18.336;2022-11-18T00:50:06;8.44;99.75
75010;DHT22;63564;46.840;18.336;2022-11-18T00:53:06;8.40;99.99
75010;DHT22;63564;46.840;18.336;2022-11-18T00:56:07;8.23;99.99
75010;DHT22;63564;46.840;18.336;2022-11-18T00:59:08;8.08;99.99
75010;DHT22;63564;46.840;18.336;2022-11-18T01:02:08;8.14;99.99
75010;DHT22;63564;46.840;18.336;2022-11-18T01:05:08;8.25;99.99
75010;DHT22;63564;46.840;18.336;2022-11-18T01:08:10;8.27;99.99
75010;DHT22;63564;46.840;18.336;2022-11-18T01:11:10;8.37;99.99
75010;DHT22;63564;46.840;18.336;2022-11-18T01:14:30;8.37;99.47
75010;DHT22;63564;46.840;18.336;2022-11-18T01:17:30;8.40;99.69
75010;DHT22;63564;46.840;18.336;2022-11-18T01:20:31;8.35;99.47
75010;DHT22;63564;46.840;18.336;2022-11-18T01:23:32;8.38;99.50
75010;DHT22;63564;46.840;18.336;2022-11-18T01:26:32;8.52;99.00
75010;DHT22;63564;46.840;18.336;2022-11-18T01:29:33;8.40;99.36
75010;DHT22;63564;46.840;18.336;2022-11-18T01:32:33;8.45;99.06
75010;DHT22;63564;46.840;18.336;2022-11-18T01:35:39;8.15;99.99
75010;DHT22;63564;46.840;18.336;2022-11-18T01:38:39;8.21;99.99
75010;DHT22;63564;46.840;18.336;2022-11-18T01:41:40;8.21;99.93
75010;DHT22;63564;46.840;18.336;2022-11-18T01:51:19;8.27;99.99
75010;DHT22;63564;46.840;18.336;2022-11-18T01:54:25;8.17;99.99
75010;DHT22;63564;46.840;18.336;2022-11-18T01:57:28;8.07;99.99
75010;DHT22;63564;46.840;18.336;2022-11-18T02:00:31;8.11;99.99
75010;DHT22;63564;46.840;18.336;2022-11-18T02:03:32;8.04;99.99
75010;DHT22;63564;46.840;18.336;2022-11-18T02:06:33;8.00;99.99
75010;DHT22;63564;46.840;18.336;2022-11-18T02:09:35;8.07;99.99
75010;DHT22;63564;46.840;18.336;2022-11-18T02:12:36;8.08;99.99
75010;DHT22;63564;46.840;18.336;2022-11-18T02:16:09;8.18;99.99
75010;DHT22;63564;46.840;18.336;2022-11-18T02:33:05;8.33;99.78
75010;DHT22;63564;46.840;18.336;2022-11-18T02:36:27;8.35;98.77
75010;DHT22;63564;46.840;18.336;2022-11-18T02:39:35;8.30;98.49
75010;DHT22;63564;46.840;18.336;2022-11-18T02:42:38;8.17;99.54
75010;DHT22;63564;46.840;18.336;2022-11-18T02:45:43;8.07;99.99
75010;DHT22;63564;46.840;18.336;2022-11-18T02:48:49;7.98;99.99
75010;DHT22;63564;46.840;18.336;2022-11-18T02:51:52;8.06;99.73
75010;DHT22;63564;46.840;18.336;2022-11-18T02:54:54;8.14;99.61
75010;DHT22;63564;46.840;18.336;2022-11-18T02:57:56;8.07;99.80
75010;DHT22;63564;46.840;18.336;2022-11-18T03:00:58;7.97;99.99
75010;DHT22;63564;46.840;18.336;2022-11-18T03:04:01;8.00;99.95
75010;DHT22;63564;46.840;18.336;2022-11-18T03:07:31;8.10;99.63
75010;DHT22;63564;46.840;18.336;2022-11-18T03:10:41;7.97;99.77
75010;DHT22;63564;46.840;18.336;2022-11-18T03:23:54;7.90;99.99
75010;DHT22;63564;46.840;18.336;2022-11-18T03:27:11;8.04;99.99
75010;DHT22;63564;46.840;18.336;2022-11-18T03:30:16;8.21;98.74
75010;DHT22;63564;46.840;18.336;2022-11-18T03:33:20;8.14;98.57
75010;DHT22;63564;46.840;18.336;2022-11-18T03:36:23;8.08;99.34
75010;DHT22;63564;46.840;18.336;2022-11-18T03:39:28;7.82;99.86
75010;DHT22;63564;46.840;18.336;2022-11-18T03:42:45;7.80;99.99
75010;DHT22;63564;46.840;18.336;2022-11-18T03:46:09;7.83;99.99
75010;DHT22;63564;46.840;18.336;2022-11-18T03:49:21;8.07;99.36
75010;DHT22;63564;46.840;18.336;2022-11-18T03:52:27;7.94;99.59
75010;DHT22;63564;46.840;18.336;2022-11-18T03:55:38;7.82;99.99
75010;DHT22;63564;46.840;18.336;2022-11-18T03:58:52;7.76;99.99
75010;DHT22;63564;46.840;18.336;2022-11-18T04:02:19;8.01;99.99
75010;DHT22;63564;46.840;18.336;2022-11-18T04:05:20;7.89;99.99
75010;DHT22;63564;46.840;18.336;2022-11-18T04:08:23;7.83;99.99
75010;DHT22;63564;46.840;18.336;2022-11-18T04:11:41;7.82;99.99
75010;DHT22;63564;46.840;18.336;2022-11-18T04:15:02;7.94;99.99
75010;DHT22;63564;46.840;18.336;2022-11-18T04:18:02;7.89;99.99
75010;DHT22;63564;46.840;18.336;2022-11-18T04:21:03;7.87;99.99
75010;DHT22;63564;46.840;18.336;2022-11-18T04:24:03;7.94;99.99
75010;DHT22;63564;46.840;18.336;2022-11-18T04:27:04;7.93;99.99
75010;DHT22;63564;46.840;18.336;2022-11-18T04:30:06;7.90;99.99
75010;DHT22;63564;46.840;18.336;2022-11-18T04:33:06;7.98;99.99
75010;DHT22;63564;46.840;18.336;2022-11-18T04:36:07;7.94;99.60
75010;DHT22;63564;46.840;18.336;2022-11-18T04:39:07;7.96;99.99
75010;DHT22;63564;46.840;18.336;2022-11-18T04:42:07;8.04;99.74
75010;DHT22;63564;46.840;18.336;2022-11-18T04:45:09;8.00;99.96
75010;DHT22;63564;46.840;18.336;2022-11-18T04:48:09;8.00;99.99
75010;DHT22;63564;46.840;18.336;2022-11-18T04:51:09;8.03;99.99
75010;DHT22;63564;46.840;18.336;2022-11-18T04:54:10;7.89;99.99
75010;DHT22;63564;46.840;18.336;2022-11-18T04:57:11;8.13;99.99
75010;DHT22;63564;46.840;18.336;2022-11-18T05:00:12;8.10;99.40
75010;DHT22;63564;46.840;18.336;2022-11-18T05:03:14;8.15;99.08
75010;DHT22;63564;46.840;18.336;2022-11-18T05:06:14;8.07;99.19
75010;DHT22;63564;46.840;18.336;2022-11-18T05:09:15;8.18;98.87
75010;DHT22;63564;46.840;18.336;2022-11-18T05:12:16;8.18;98.61
75010;DHT22;63564;46.840;18.336;2022-11-18T05:15:34;8.14;98.84
75010;DHT22;63564;46.840;18.336;2022-11-18T05:18:35;8.28;98.62
75010;DHT22;63564;46.840;18.336;2022-11-18T05:21:35;8.28;98.79
75010;DHT22;63564;46.840;18.336;2022-11-18T05:24:36;8.20;98.87
75010;DHT22;63564;46.840;18.336;2022-11-18T05:27:36;7.96;99.97
75010;DHT22;63564;46.840;18.336;2022-11-18T05:30:36;8.10;99.99
75010;DHT22;63564;46.840;18.336;2022-11-18T05:33:37;8.28;99.33
75010;DHT22;63564;46.840;18.336;2022-11-18T05:36:38;8.20;99.14
75010;DHT22;63564;46.840;18.336;2022-11-18T05:39:38;8.10;99.54
75010;DHT22;63564;46.840;18.336;2022-11-18T05:42:39;8.13;99.69
75010;DHT22;63564;46.840;18.336;2022-11-18T05:45:58;8.04;99.99
75010;DHT22;63564;46.840;18.336;2022-11-18T05:48:58;8.18;99.99
75010;DHT22;63564;46.840;18.336;2022-11-18T05:51:58;8.17;99.74
75010;DHT22;63564;46.840;18.336;2022-11-18T05:54:59;8.06;99.97
75010;DHT22;63564;46.840;18.336;2022-11-18T05:57:59;7.97;99.99
75010;DHT22;63564;46.840;18.336;2022-11-18T06:01:02;8.31;99.90
75010;DHT22;63564;46.840;18.336;2022-11-18T06:04:09;8.34;99.27
75010;DHT22;63564;46.840;18.336;2022-11-18T06:07:19;8.15;99.92
75010;DHT22;63564;46.840;18.336;2022-11-18T06:10:25;8.20;99.99
75010;DHT22;63564;46.840;18.336;2022-11-18T06:13:34;8.21;99.99
75010;DHT22;63564;46.840;18.336;2022-11-18T06:16:37;8.34;99.79
75010;DHT22;63564;46.840;18.336;2022-11-18T06:19:38;8.33;99.54
75010;DHT22;63564;46.840;18.336;2022-11-18T06:22:39;8.38;99.48
75010;DHT22;63564;46.840;18.336;2022-11-18T06:25:39;8.15;99.65
75010;DHT22;63564;46.840;18.336;2022-11-18T06:28:42;8.24;99.99
75010;DHT22;63564;46.840;18.336;2022-11-18T06:31:43;8.17;99.99
75010;DHT22;63564;46.840;18.336;2022-11-18T06:34:43;8.13;99.99
75010;DHT22;63564;46.840;18.336;2022-11-18T06:37:45;8.18;99.99
75010;DHT22;63564;46.840;18.336;2022-11-18T06:40:45;8.30;99.99
75010;DHT22;63564;46.840;18.336;2022-11-18T06:43:46;8.44;99.99
75010;DHT22;63564;46.840;18.336;2022-11-18T06:46:46;8.40;99.99
75010;DHT22;63564;46.840;18.336;2022-11-18T06:49:56;8.33;99.74
75010;DHT22;63564;46.840;18.336;2022-11-18T06:52:59;8.86;99.99
75010;DHT22;63564;46.840;18.336;2022-11-18T06:56:03;8.49;99.22
75010;DHT22;63564;46.840;18.336;2022-11-18T06:59:04;8.65;99.76
75010;DHT22;63564;46.840;18.336;2022-11-18T07:02:04;8.89;99.81
75010;DHT22;63564;46.840;18.336;2022-11-18T07:05:05;8.86;98.35
75010;DHT22;63564;46.840;18.336;2022-11-18T07:08:14;8.62;98.97
75010;DHT22;63564;46.840;18.336;2022-11-18T07:11:18;8.52;99.45
75010;DHT22;63564;46.840;18.336;2022-11-18T07:14:19;8.55;98.41
75010;DHT22;63564;46.840;18.336;2022-11-18T07:17:19;8.44;99.14
75010;DHT22;63564;46.840;18.336;2022-11-18T07:20:20;8.46;99.50
75010;DHT22;63564;46.840;18.336;2022-11-18T07:23:21;8.56;99.83
75010;DHT22;63564;46.840;18.336;2022-11-18T07:26:23;8.79;99.91
75010;DHT22;63564;46.840;18.336;2022-11-18T07:29:24;8.97;99.99
75010;DHT22;63564;46.840;18.336;2022-11-18T07:32:24;8.94;98.52
75010;DHT22;63564;46.840;18.336;2022-11-18T07:35:28;8.76;98.28
75010;DHT22;63564;46.840;18.336;2022-11-18T07:38:28;8.69;98.81
75010;DHT22;63564;46.840;18.336;2022-11-18T07:41:29;8.69;99.99
75010;DHT22;63564;46.840;18.336;2022-11-18T07:44:30;8.80;99.85
75010;DHT22;63564;46.840;18.336;2022-11-18T07:47:32;8.99;99.43
75010;DHT22;63564;46.840;18.336;2022-11-18T07:50:33;9.32;97.71
75010;DHT22;63564;46.840;18.336;2022-11-18T07:53:34;9.26;99.65
75010;DHT22;63564;46.840;18.336;2022-11-18T07:56:34;9.26;97.91
75010;DHT22;63564;46.840;18.336;2022-11-18T07:59:35;9.17;98.45
75010;DHT22;63564;46.840;18.336;2022-11-18T08:02:35;9.14;98.46
75010;DHT22;63564;46.840;18.336;2022-11-18T08:05:36;9.13;98.24
75010;DHT22;63564;46.840;18.336;2022-11-18T08:08:37;9.01;97.40
75010;DHT22;63564;46.840;18.336;2022-11-18T08:11:37;8.66;98.16
75010;DHT22;63564;46.840;18.336;2022-11-18T08:14:37;8.82;99.51
75010;DHT22;63564;46.840;18.336;2022-11-18T08:17:38;8.75;99.38
75010;DHT22;63564;46.840;18.336;2022-11-18T08:20:38;8.58;99.14
75010;DHT22;63564;46.840;18.336;2022-11-18T08:23:39;8.75;99.90
75010;DHT22;63564;46.840;18.336;2022-11-18T08:26:39;9.04;99.99
75010;DHT22;63564;46.840;18.336;2022-11-18T08:29:39;8.86;97.95
75010;DHT22;63564;46.840;18.336;2022-11-18T08:32:40;8.68;98.52
75010;DHT22;63564;46.840;18.336;2022-11-18T08:35:40;8.56;99.50
75010;DHT22;63564;46.840;18.336;2022-11-18T08:38:40;8.51;99.99
75010;DHT22;63564;46.840;18.336;2022-11-18T08:41:42;8.56;99.99
75010;DHT22;63564;46.840;18.336;2022-11-18T08:44:43;8.77;99.99
75010;DHT22;63564;46.840;18.336;2022-11-18T08:47:44;9.04;99.91
75010;DHT22;63564;46.840;18.336;2022-11-18T08:50:44;9.04;98.89
75010;DHT22;63564;46.840;18.336;2022-11-18T08:53:45;8.92;98.76
75010;DHT22;63564;46.840;18.336;2022-11-18T08:56:45;8.89;98.26
75010;DHT22;63564;46.840;18.336;2022-11-18T08:59:46;9.13;99.78
75010;DHT22;63564;46.840;18.336;2022-11-18T09:02:46;9.14;98.96
75010;DHT22;63564;46.840;18.336;2022-11-18T09:05:46;9.44;99.99
75010;DHT22;63564;46.840;18.336;2022-11-18T09:08:47;9.51;96.63
75010;DHT22;63564;46.840;18.336;2022-11-18T09:11:47;9.49;97.29
75010;DHT22;63564;46.840;18.336;2022-11-18T09:14:48;9.35;98.06
75010;DHT22;63564;46.840;18.336;2022-11-18T09:17:49;9.35;97.22
75010;DHT22;63564;46.840;18.336;2022-11-18T09:20:56;8.92;97.55
75010;DHT22;63564;46.840;18.336;2022-11-18T09:23:57;8.79;98.39
75010;DHT22;63564;46.840;18.336;2022-11-18T09:26:57;8.72;98.29
75010;DHT22;63564;46.840;18.336;2022-11-18T09:29:57;9.09;98.75
75010;DHT22;63564;46.840;18.336;2022-11-18T09:32:58;9.17;97.63
75010;DHT22;63564;46.840;18.336;2022-11-18T09:35:58;9.42;97.06
75010;DHT22;63564;46.840;18.336;2022-11-18T09:38:59;9.52;96.01
75010;DHT22;63564;46.840;18.336;2022-11-18T09:42:21;9.30;95.36
75010;DHT22;63564;46.840;18.336;2022-11-18T09:45:27;9.58;97.41
75010;DHT22;63564;46.840;18.336;2022-11-18T09:48:30;9.00;97.27
75010;DHT22;63564;46.840;18.336;2022-11-18T09:51:50;9.09;97.16
75010;DHT22;63564;46.840;18.336;2022-11-18T09:54:51;8.86;97.96
75010;DHT22;63564;46.840;18.336;2022-11-18T09:57:56;8.68;98.82
75010;DHT22;63564;46.840;18.336;2022-11-18T10:00:57;8.84;99.03
75010;DHT22;63564;46.840;18.336;2022-11-18T10:03:57;8.97;97.83
75010;DHT22;63564;46.840;18.336;2022-11-18T10:06:58;8.69;98.75
75010;DHT22;63564;46.840;18.336;2022-11-18T10:10:03;8.76;98.50
75010;DHT22;63564;46.840;18.336;2022-11-18T10:23:32;8.66;98.84
75010;DHT22;63564;46.840;18.336;2022-11-18T10:26:39;8.68;99.00
75010;DHT22;63564;46.840;18.336;2022-11-18T10:29:41;8.90;98.18
75010;DHT22;63564;46.840;18.336;2022-11-18T10:33:01;8.72;99.04
75010;DHT22;63564;46.840;18.336;2022-11-18T10:39:17;8.63;98.75
75010;DHT22;63564;46.840;18.336;2022-11-18T10:45:30;8.68;99.64
75010;DHT22;63564;46.840;18.336;2022-11-18T10:48:30;8.75;98.71
75010;DHT22;63564;46.840;18.336;2022-11-18T10:51:32;8.72;98.80
75010;DHT22;63564;46.840;18.336;2022-11-18T10:54:32;8.89;99.35
75010;DHT22;63564;46.840;18.336;2022-11-18T10:57:39;8.84;98.68
75010;DHT22;63564;46.840;18.336;2022-11-18T11:00:47;9.01;98.89
75010;DHT22;63564;46.840;18.336;2022-11-18T11:04:02;8.76;98.84
75010;DHT22;63564;46.840;18.336;2022-11-18T11:07:24;8.73;99.21
75010;DHT22;63564;46.840;18.336;2022-11-18T11:10:25;8.65;99.45
75010;DHT22;63564;46.840;18.336;2022-11-18T11:13:27;8.68;99.39
75010;DHT22;63564;46.840;18.336;2022-11-18T11:16:30;8.77;98.93
75010;DHT22;63564;46.840;18.336;2022-11-18T11:19:44;8.71;99.52
75010;DHT22;63564;46.840;18.336;2022-11-18T11:22:48;8.62;99.22
75010;DHT22;63564;46.840;18.336;2022-11-18T11:35:48;8.65;99.85
75010;DHT22;63564;46.840;18.336;2022-11-18T11:38:56;8.66;99.24
75010;DHT22;63564;46.840;18.336;2022-11-18T11:45:53;8.62;99.56
75010;DHT22;63564;46.840;18.336;2022-11-18T11:49:22;8.68;99.90
75010;DHT22;63564;46.840;18.336;2022-11-18T11:53:02;8.49;99.57
75010;DHT22;63564;46.840;18.336;2022-11-18T11:56:17;8.75;99.71
75010;DHT22;63564;46.840;18.336;2022-11-18T12:03:32;8.76;98.69
75010;DHT22;63564;46.840;18.336;2022-11-18T12:06:37;8.80;98.45
75010;DHT22;63564;46.840;18.336;2022-11-18T12:19:43;8.83;99.65
75010;DHT22;63564;46.840;18.336;2022-11-18T12:23:24;8.93;98.10
75010;DHT22;63564;46.840;18.336;2022-11-18T12:26:33;8.92;98.07
75010;DHT22;63564;46.840;18.336;2022-11-18T12:30:03;8.97;99.49
75010;DHT22;63564;46.840;18.336;2022-11-18T12:33:09;8.96;98.97
75010;DHT22;63564;46.840;18.336;2022-11-18T12:42:46;9.07;98.56
75010;DHT22;63564;46.840;18.336;2022-11-18T12:46:05;8.93;98.09
75010;DHT22;63564;46.840;18.336;2022-11-18T12:55:32;9.06;97.80
75010;DHT22;63564;46.840;18.336;2022-11-18T12:58:33;9.10;98.47
75010;DHT22;63564;46.840;18.336;2022-11-18T13:01:34;9.00;97.95
75010;DHT22;63564;46.840;18.336;2022-11-18T13:04:34;8.86;98.51
75010;DHT22;63564;46.840;18.336;2022-11-18T13:07:42;9.00;97.74
75010;DHT22;63564;46.840;18.336;2022-11-18T13:11:17;8.87;98.48
75010;DHT22;63564;46.840;18.336;2022-11-18T13:14:40;8.87;98.10
75010;DHT22;63564;46.840;18.336;2022-11-18T13:18:12;8.99;98.00
75010;DHT22;63564;46.840;18.336;2022-11-18T13:21:26;8.97;98.34
75010;DHT22;63564;46.840;18.336;2022-11-18T13:24:50;8.99;97.46
75010;DHT22;63564;46.840;18.336;2022-11-18T13:31:07;8.97;97.44
75010;DHT22;63564;46.840;18.336;2022-11-18T13:34:23;8.94;97.08
75010;DHT22;63564;46.840;18.336;2022-11-18T13:37:28;8.93;97.72
75010;DHT22;63564;46.840;18.336;2022-11-18T13:40:44;8.92;97.35
75010;DHT22;63564;46.840;18.336;2022-11-18T13:44:22;8.86;97.86
75010;DHT22;63564;46.840;18.336;2022-11-18T13:47:58;8.87;97.74
75010;DHT22;63564;46.840;18.336;2022-11-18T13:51:00;8.92;97.16
75010;DHT22;63564;46.840;18.336;2022-11-18T13:54:01;8.84;97.59
75010;DHT22;63564;46.840;18.336;2022-11-18T13:57:02;8.79;97.89
75010;DHT22;63564;46.840;18.336;2022-11-18T14:00:06;8.77;98.09
75010;DHT22;63564;46.840;18.336;2022-11-18T14:03:34;8.90;97.33
75010;DHT22;63564;46.840;18.336;2022-11-18T14:06:36;8.86;97.41
75010;DHT22;63564;46.840;18.336;2022-11-18T14:09:51;8.83;97.99
75010;DHT22;63564;46.840;18.336;2022-11-18T14:12:57;9.19;97.70
75010;DHT22;63564;46.840;18.336;2022-11-18T14:16:00;9.21;96.11
75010;DHT22;63564;46.840;18.336;2022-11-18T14:19:01;9.30;96.99
75010;DHT22;63564;46.840;18.336;2022-11-18T14:22:14;8.86;97.09
75010;DHT22;63564;46.840;18.336;2022-11-18T14:25:18;8.82;97.00
75010;DHT22;63564;46.840;18.336;2022-11-18T14:28:27;8.73;97.65
75010;DHT22;63564;46.840;18.336;2022-11-18T14:31:31;8.79;97.00
75010;DHT22;63564;46.840;18.336;2022-11-18T14:34:32;8.79;97.15
75010;DHT22;63564;46.840;18.336;2022-11-18T14:37:33;8.75;96.92
75010;DHT22;63564;46.840;18.336;2022-11-18T14:40:33;8.72;97.21
75010;DHT22;63564;46.840;18.336;2022-11-18T14:43:33;8.71;96.47
75010;DHT22;63564;46.840;18.336;2022-11-18T14:46:36;8.65;97.13
75010;DHT22;63564;46.840;18.336;2022-11-18T14:49:36;8.65;96.73
75010;DHT22;63564;46.840;18.336;2022-11-18T14:52:37;8.66;96.23
75010;DHT22;63564;46.840;18.336;2022-11-18T14:55:37;8.49;97.22
75010;DHT22;63564;46.840;18.336;2022-11-18T14:58:38;8.52;95.78
75010;DHT22;63564;46.840;18.336;2022-11-18T15:01:39;8.56;95.34
75010;DHT22;63564;46.840;18.336;2022-11-18T15:04:39;8.49;95.39
75010;DHT22;63564;46.840;18.336;2022-11-18T15:07:40;8.35;97.10
75010;DHT22;63564;46.840;18.336;2022-11-18T15:10:40;8.40;96.27
75010;DHT22;63564;46.840;18.336;2022-11-18T15:13:41;8.35;96.08
75010;DHT22;63564;46.840;18.336;2022-11-18T15:16:41;8.38;95.19
75010;DHT22;63564;46.840;18.336;2022-11-18T15:19:41;8.35;95.64
75010;DHT22;63564;46.840;18.336;2022-11-18T15:22:42;8.30;95.19
75010;DHT22;63564;46.840;18.336;2022-11-18T15:25:42;8.31;95.50
75010;DHT22;63564;46.840;18.336;2022-11-18T15:28:43;8.34;95.70
75010;DHT22;63564;46.840;18.336;2022-11-18T15:31:43;8.28;96.52
75010;DHT22;63564;46.840;18.336;2022-11-18T15:34:44;8.34;94.85
75010;DHT22;63564;46.840;18.336;2022-11-18T15:37:44;8.24;95.04
75010;DHT22;63564;46.840;18.336;2022-11-18T15:40:44;8.30;94.94
75010;DHT22;63564;46.840;18.336;2022-11-18T15:43:45;8.24;96.65
75010;DHT22;63564;46.840;18.336;2022-11-18T15:46:46;8.25;95.57
75010;DHT22;63564;46.840;18.336;2022-11-18T15:49:47;8.21;95.16
75010;DHT22;63564;46.840;18.336;2022-11-18T15:52:47;8.25;94.33
75010;DHT22;63564;46.840;18.336;2022-11-18T15:55:47;8.23;94.72
75010;DHT22;63564;46.840;18.336;2022-11-18T16:01:58;8.17;95.52
75010;DHT22;63564;46.840;18.336;2022-11-18T16:04:58;8.15;95.76
75010;DHT22;63564;46.840;18.336;2022-11-18T16:07:59;8.07;95.92
75010;DHT22;63564;46.840;18.336;2022-11-18T16:10:59;8.10;96.27
75010;DHT22;63564;46.840;18.336;2022-11-18T16:14:19;8.06;97.05
75010;DHT22;63564;46.840;18.336;2022-11-18T16:17:20;8.10;97.17
75010;DHT22;63564;46.840;18.336;2022-11-18T16:20:20;8.04;97.54
75010;DHT22;63564;46.840;18.336;2022-11-18T16:23:21;8.08;96.74
75010;DHT22;63564;46.840;18.336;2022-11-18T16:26:21;8.03;97.62
75010;DHT22;63564;46.840;18.336;2022-11-18T16:29:22;8.11;96.85
75010;DHT22;63564;46.840;18.336;2022-11-18T16:32:22;8.14;97.02
75010;DHT22;63564;46.840;18.336;2022-11-18T16:35:23;8.03;97.79
75010;DHT22;63564;46.840;18.336;2022-11-18T16:38:23;8.17;97.82
75010;DHT22;63564;46.840;18.336;2022-11-18T16:41:24;8.14;96.87
75010;DHT22;63564;46.840;18.336;2022-11-18T16:44:33;8.15;98.01
75010;DHT22;63564;46.840;18.336;2022-11-18T16:47:34;8.04;97.30
75010;DHT22;63564;46.840;18.336;2022-11-18T16:50:34;8.15;96.68
75010;DHT22;63564;46.840;18.336;2022-11-18T16:53:35;8.04;96.68
75010;DHT22;63564;46.840;18.336;2022-11-18T16:56:35;8.07;96.32
75010;DHT22;63564;46.840;18.336;2022-11-18T16:59:35;8.10;96.04
75010;DHT22;63564;46.840;18.336;2022-11-18T17:02:35;8.11;95.07
75010;DHT22;63564;46.840;18.336;2022-11-18T17:05:36;8.03;95.53
75010;DHT22;63564;46.840;18.336;2022-11-18T17:08:36;8.06;95.48
75010;DHT22;63564;46.840;18.336;2022-11-18T17:11:37;7.83;97.24
75010;DHT22;63564;46.840;18.336;2022-11-18T17:14:37;7.89;97.46
75010;DHT22;63564;46.840;18.336;2022-11-18T17:17:39;7.90;96.78
75010;DHT22;63564;46.840;18.336;2022-11-18T17:20:39;7.80;97.04
75010;DHT22;63564;46.840;18.336;2022-11-18T17:23:39;7.76;98.40
75010;DHT22;63564;46.840;18.336;2022-11-18T17:26:40;7.82;97.81
75010;DHT22;63564;46.840;18.336;2022-11-18T17:29:41;7.87;97.49
75010;DHT22;63564;46.840;18.336;2022-11-18T17:32:41;7.76;97.97
75010;DHT22;63564;46.840;18.336;2022-11-18T17:35:41;7.82;98.24
75010;DHT22;63564;46.840;18.336;2022-11-18T17:38:45;7.73;97.86
75010;DHT22;63564;46.840;18.336;2022-11-18T17:41:45;7.72;98.26
75010;DHT22;63564;46.840;18.336;2022-11-18T17:45:05;7.83;97.82
75010;DHT22;63564;46.840;18.336;2022-11-18T17:48:05;7.90;97.66
75010;DHT22;63564;46.840;18.336;2022-11-18T17:51:06;7.94;97.66
75010;DHT22;63564;46.840;18.336;2022-11-18T17:54:07;7.94;97.70
75010;DHT22;63564;46.840;18.336;2022-11-18T17:57:08;7.93;97.40
75010;DHT22;63564;46.840;18.336;2022-11-18T18:00:09;7.89;98.03
75010;DHT22;63564;46.840;18.336;2022-11-18T18:03:09;7.86;97.99
75010;DHT22;63564;46.840;18.336;2022-11-18T18:06:11;7.83;98.27
75010;DHT22;63564;46.840;18.336;2022-11-18T18:09:11;7.82;98.47
75010;DHT22;63564;46.840;18.336;2022-11-18T18:12:12;7.82;98.35
75010;DHT22;63564;46.840;18.336;2022-11-18T18:15:31;7.85;98.29
75010;DHT22;63564;46.840;18.336;2022-11-18T18:18:31;7.80;98.70
75010;DHT22;63564;46.840;18.336;2022-11-18T18:21:32;7.73;98.65
75010;DHT22;63564;46.840;18.336;2022-11-18T18:24:33;7.77;98.95
75010;DHT22;63564;46.840;18.336;2022-11-18T18:27:33;7.79;98.84
75010;DHT22;63564;46.840;18.336;2022-11-18T18:30:34;7.70;99.02
75010;DHT22;63564;46.840;18.336;2022-11-18T18:33:35;7.63;99.78
75010;DHT22;63564;46.840;18.336;2022-11-18T18:36:35;7.65;99.73
75010;DHT22;63564;46.840;18.336;2022-11-18T18:39:36;7.70;99.52
75010;DHT22;63564;46.840;18.336;2022-11-18T18:42:36;7.58;99.55
75010;DHT22;63564;46.840;18.336;2022-11-18T18:45:37;7.65;99.26
75010;DHT22;63564;46.840;18.336;2022-11-18T18:52:01;7.61;99.50
75010;DHT22;63564;46.840;18.336;2022-11-18T18:55:02;7.62;99.41
75010;DHT22;63564;46.840;18.336;2022-11-18T18:58:02;7.58;99.49
75010;DHT22;63564;46.840;18.336;2022-11-18T19:01:04;7.69;99.61
75010;DHT22;63564;46.840;18.336;2022-11-18T19:04:06;7.73;99.04
75010;DHT22;63564;46.840;18.336;2022-11-18T19:07:06;7.73;98.32
75010;DHT22;63564;46.840;18.336;2022-11-18T19:10:07;7.70;99.18
75010;DHT22;63564;46.840;18.336;2022-11-18T19:13:08;7.65;99.41
75010;DHT22;63564;46.840;18.336;2022-11-18T19:16:08;7.54;99.57
75010;DHT22;63564;46.840;18.336;2022-11-18T19:19:12;7.52;99.71
75010;DHT22;63564;46.840;18.336;2022-11-18T19:22:13;7.55;99.80
75010;DHT22;63564;46.840;18.336;2022-11-18T19:25:14;7.51;99.71
75010;DHT22;63564;46.840;18.336;2022-11-18T19:28:14;7.48;99.89
75010;DHT22;63564;46.840;18.336;2022-11-18T19:31:15;7.48;99.99
75010;DHT22;63564;46.840;18.336;2022-11-18T19:34:17;7.49;99.99
75010;DHT22;63564;46.840;18.336;2022-11-18T19:37:17;7.45;99.99
75010;DHT22;63564;46.840;18.336;2022-11-18T19:40:18;7.45;99.99
75010;DHT22;63564;46.840;18.336;2022-11-18T19:43:18;7.47;99.99
75010;DHT22;63564;46.840;18.336;2022-11-18T19:46:19;7.47;99.99
75010;DHT22;63564;46.840;18.336;2022-11-18T19:49:19;7.54;99.92
75010;DHT22;63564;46.840;18.336;2022-11-18T19:52:19;7.55;99.99
75010;DHT22;63564;46.840;18.336;2022-11-18T19:55:20;7.65;99.99
75010;DHT22;63564;46.840;18.336;2022-11-18T19:58:20;7.65;99.99
75010;DHT22;63564;46.840;18.336;2022-11-18T20:01:23;7.65;99.99
75010;DHT22;63564;46.840;18.336;2022-11-18T20:04:24;7.62;99.98
75010;DHT22;63564;46.840;18.336;2022-11-18T20:07:25;7.61;99.99
75010;DHT22;63564;46.840;18.336;2022-11-18T20:10:25;7.63;99.99
75010;DHT22;63564;46.840;18.336;2022-11-18T20:13:25;7.61;99.92
75010;DHT22;63564;46.840;18.336;2022-11-18T20:16:26;7.59;99.88
75010;DHT22;63564;46.840;18.336;2022-11-18T20:19:26;7.52;99.99
75010;DHT22;63564;46.840;18.336;2022-11-18T20:22:26;7.47;99.81
75010;DHT22;63564;46.840;18.336;2022-11-18T20:25:27;7.47;99.83
75010;DHT22;63564;46.840;18.336;2022-11-18T20:28:28;7.41;99.77
75010;DHT22;63564;46.840;18.336;2022-11-18T20:31:28;7.39;99.83
75010;DHT22;63564;46.840;18.336;2022-11-18T20:34:29;7.38;99.72
75010;DHT22;63564;46.840;18.336;2022-11-18T20:37:29;7.30;99.94
75010;DHT22;63564;46.840;18.336;2022-11-18T20:40:30;7.32;99.13
75010;DHT22;63564;46.840;18.336;2022-11-18T20:43:34;7.27;98.32
75010;DHT22;63564;46.840;18.336;2022-11-18T20:46:35;7.22;98.63
75010;DHT22;63564;46.840;18.336;2022-11-18T20:49:36;7.18;98.01
75010;DHT22;63564;46.840;18.336;2022-11-18T20:52:36;7.12;98.11
75010;DHT22;63564;46.840;18.336;2022-11-18T20:55:37;7.14;97.75
75010;DHT22;63564;46.840;18.336;2022-11-18T20:58:37;7.11;97.77